This is the latest recevied weather packets stored in our database for station/object OK1FCB-1. If no packets are shown the sender has not sent any weather packets the latest 10 day(s).
| Time | Temp. | Humidity | Pressure | Rain* | Wind** | Luminosity | Snow |
|---|---|---|---|---|---|---|---|
| 1788371631 | 18.89° C | 59% | 1023.6 hPa | - | - | - | - |
| 1788370734 | 20° C | 56% | 1023.6 hPa | - | - | - | - |
| 1788369838 | 21.11° C | 52% | 1023.5 hPa | - | - | - | - |
| 1788368943 | 22.78° C | 49% | 1023.5 hPa | - | - | - | - |
| 1788366258 | 28.89° C | 37% | 1023.6 hPa | - | - | - | - |
| 1788361777 | 34.44° C | 34% | 1024.2 hPa | - | - | - | - |
| 1788358171 | 26.67° C | 44% | 1024.6 hPa | - | - | - | - |
| 1788357273 | 26.67° C | 43% | 1024.7 hPa | - | - | - | - |
| 1788356379 | 27.78° C | 42% | 1024.7 hPa | - | - | - | - |
| 1788355482 | 28.33° C | 41% | 1024.8 hPa | - | - | - | - |
| 1788354584 | 28.89° C | 42% | 1024.8 hPa | - | - | - | - |
| 1788351890 | 28.33° C | 43% | 1025.2 hPa | - | - | - | - |
| 1788349195 | 27.78° C | 45% | 1025.5 hPa | - | - | - | - |
| 1788348299 | 28.33° C | 44% | 1025.6 hPa | - | - | - | - |
| 1788347401 | 28.33° C | 44% | 1025.7 hPa | - | - | - | - |
| 1788346502 | 27.22° C | 47% | 1025.9 hPa | - | - | - | - |
| 1788345605 | 27.78° C | 46% | 1026 hPa | - | - | - | - |
| 1788342012 | 28.89° C | 47% | 1026.2 hPa | - | - | - | - |
| 1788338416 | 26.11° C | 50% | 1026.4 hPa | - | - | - | - |
| 1788334820 | 23.33° C | 54% | 1026.5 hPa | - | - | - | - |
| 1788333922 | 23.33° C | 55% | 1026.5 hPa | - | - | - | - |
| 1788332125 | 21.67° C | 63% | 1026.3 hPa | - | - | - | - |
| 1788331225 | 20.56° C | 66% | 1026.3 hPa | - | - | - | - |
| 1788330326 | 18.33° C | 71% | 1026.3 hPa | - | - | - | - |
| 1788290821 | 13.89° C | 72% | 1025 hPa | - | - | - | - |
* Rain since midnight (hover to see other rain measurements)
** Current wind speed in m/s (hover to see current wind gust speed)